Bluemoon — C6ZQ6 — position and weather

sailwx.info

Track history (hours):
 
Tides and Currents Weather Stations Pressure Air Temp Water Temp Dewpoint Dewpoint Depression Visibility Wind Speed Wind Dir Waves Ship Positions

Bluemoon

Last reported at 2017-Dec-10 06:37 UTC. Time now 2017-Dec-18 12:41 UTC.
Position N 41°24' E 139°21'.
Warning: this ship's position is 8 days out of date.

Length 289 m; draft 16.1 m.

Type: Cargo ship. MMSI: 311063200.

Date/timePositionNaut miles runAvg speedWind from/ knotsBaromVisibWave heightAir tempDewpointWater temp
2017-Dec-10 06:37N 41°24' E 139°21'111.3
2017-Dec-10 06:30N 41°23' E 139°23'611.1
2017-Dec-10 05:57N 41°22' E 139°31'510.9
2017-Dec-10 05:30N 41°20' E 139°37'711.1
2017-Dec-10 04:51N 41°18' E 139°46'510.8
2017-Dec-10 04:21N 41°17' E 139°53'16 9.6
2017-Dec-10 02:41N 41°19' E 140°14'2 9.3
2017-Dec-10 02:30N 41°20' E 140°16'5 9.2
2017-Dec-10 01:58N 41°23' E 140°21'5 9.5
2017-Dec-10 01:29N 41°26' E 140°26'510.6
2017-Dec-10 01:00N 41°29' E 140°32'511.0
2017-Dec-10 00:30N 41°32' E 140°38'510.3
2017-Dec-10 00:00N 41°34' E 140°44'5 9.6
2017-Dec-09 23:30N 41°36' E 140°50'4 8.2
2017-Dec-09 23:00N 41°39' E 140°54'4 7.3
2017-Dec-09 22:30N 41°38' E 140°59'3 6.8
2017-Dec-09 22:00N 41°36' E 141°03'4 7.5
2017-Dec-09 21:30N 41°35' E 141°08'4 9.0
2017-Dec-09 21:00N 41°34' E 141°14'5 9.1
2017-Dec-09 20:30N 41°33' E 141°20'5 9.1
2017-Dec-09 20:00N 41°32' E 141°26'4 8.2
2017-Dec-09 19:29N 41°31' E 141°31'5 9.5
2017-Dec-09 19:00N 41°30' E 141°37'7 9.9
2017-Dec-09 18:21N 41°27' E 141°45'  
Track history (hours):
 
Tides and Currents Weather Stations Pressure Air Temp Water Temp Dewpoint Dewpoint Depression Visibility Wind Speed Wind Dir Waves Ship Positions

Bluemoon

Last reported at 2017-Dec-10 06:37 UTC. Time now 2017-Dec-18 12:41 UTC.
Position N 41°24' E 139°21'.
Warning: this ship's position is 8 days out of date.

Length 289 m; draft 16.1 m.

Type: Cargo ship. MMSI: 311063200.

Date/timePositionNaut miles runAvg speedWind from/ knotsBaromVisibWave heightAir tempDewpointWater temp
2017-Dec-10 06:37N 41°24' E 139°21'111.3
2017-Dec-10 06:30N 41°23' E 139°23'611.1
2017-Dec-10 05:57N 41°22' E 139°31'510.9
2017-Dec-10 05:30N 41°20' E 139°37'711.1
2017-Dec-10 04:51N 41°18' E 139°46'510.8
2017-Dec-10 04:21N 41°17' E 139°53'16 9.6
2017-Dec-10 02:41N 41°19' E 140°14'2 9.3
2017-Dec-10 02:30N 41°20' E 140°16'5 9.2
2017-Dec-10 01:58N 41°23' E 140°21'5 9.5
2017-Dec-10 01:29N 41°26' E 140°26'510.6
2017-Dec-10 01:00N 41°29' E 140°32'511.0
2017-Dec-10 00:30N 41°32' E 140°38'510.3
2017-Dec-10 00:00N 41°34' E 140°44'5 9.6
2017-Dec-09 23:30N 41°36' E 140°50'4 8.2
2017-Dec-09 23:00N 41°39' E 140°54'4 7.3
2017-Dec-09 22:30N 41°38' E 140°59'3 6.8
2017-Dec-09 22:00N 41°36' E 141°03'4 7.5
2017-Dec-09 21:30N 41°35' E 141°08'4 9.0
2017-Dec-09 21:00N 41°34' E 141°14'5 9.1
2017-Dec-09 20:30N 41°33' E 141°20'5 9.1
2017-Dec-09 20:00N 41°32' E 141°26'4 8.2
2017-Dec-09 19:29N 41°31' E 141°31'5 9.5
2017-Dec-09 19:00N 41°30' E 141°37'7 9.9
2017-Dec-09 18:21N 41°27' E 141°45'  

Dump ship's entire track history